This is the latest recevied weather packets stored in our database for station/object IQ5QD-13. If no packets are shown the sender has not sent any weather packets the latest 10 day(s).
| Time | Temp. | Humidity | Pressure | Rain* | Wind** | Luminosity | Snow |
|---|---|---|---|---|---|---|---|
| 1777950972 | 13.33° C | 91% | 1009.6 hPa | 1.02 mm | - | 0 W/m² | - |
| 1777948540 | 13.33° C | 91% | 1010 hPa | 1.52 mm | - | 0 W/m² | - |
| 1777945587 | 13.33° C | 90% | 1010.5 hPa | 3.81 mm | - | 0 W/m² | - |
| 1777943164 | 13.33° C | 89% | 1011 hPa | 3.81 mm | - | 0 W/m² | - |
| 1777942539 | 13.89° C | 88% | 1011.1 hPa | 4.06 mm | - | 0 W/m² | - |
| 1777941985 | 13.89° C | 88% | 1011.4 hPa | 3.56 mm | - | 0 W/m² | - |
| 1777941364 | 13.89° C | 87% | 1011.4 hPa | 2.79 mm | - | 0 W/m² | - |
| 1777931146 | 13.89° C | 82% | 1013 hPa | 0 mm | - | 0 W/m² | - |
| 1777929933 | 13.89° C | 80% | 1013.1 hPa | 0 mm | - | 0 W/m² | - |
| 1777927533 | 15° C | 77% | 1013.1 hPa | 0 mm | - | 0 W/m² | - |
| 1777924597 | 16.11° C | 74% | 1013.2 hPa | 0 mm | - | 0 W/m² | - |
| 1777922718 | 16.11° C | 73% | 1013 hPa | 0 mm | - | 0 W/m² | - |
| 1777920922 | 17.22° C | 69% | 1012.8 hPa | 0 mm | - | 0 W/m² | - |
| 1777917932 | 18.33° C | 66% | 1012.7 hPa | 0 mm | - | 11 W/m² | - |
| 1777916717 | 18.89° C | 66% | 1012.6 hPa | 0 mm | - | 17 W/m² | - |
| 1777914365 | 19.44° C | 65% | 1012.5 hPa | 0 mm | - | 50 W/m² | - |
| 1777910158 | 21.11° C | 59% | 1012.5 hPa | 0 mm | - | 288 W/m² | - |
| 1777904762 | 22.22° C | 52% | 1012.7 hPa | 0 mm | - | 225 W/m² | - |
| 1777901117 | 22.22° C | 47% | 1013.1 hPa | 0 mm | - | 300 W/m² | - |
| 1777900540 | 22.78° C | 47% | 1013.2 hPa | 0 mm | - | 282 W/m² | - |
| 1777899322 | 22.78° C | 47% | 1013.3 hPa | 0 mm | - | 494 W/m² | - |
| 1777897533 | 22.22° C | 46% | 1013.5 hPa | 0 mm | - | 724 W/m² | - |
| 1777895165 | 23.33° C | 44% | 1013.8 hPa | 0 mm | - | 619 W/m² | - |
| 1777894522 | 23.33° C | 43% | 1013.9 hPa | 0 mm | - | 584 W/m² | - |
| 1777892173 | 22.22° C | 43% | 1014.2 hPa | 0 mm | - | 428 W/m² | - |
* Rain latest hour (hover to see other rain measurements)
** Current wind speed in m/s (hover to see current wind gust speed)